createdAt,value
2019-01-06T00:00:15.057Z,0.00
2019-01-06T00:01:15.042Z,0.00
2019-01-06T00:02:15.027Z,0.00
2019-01-06T00:03:15.012Z,0.00
2019-01-06T00:04:14.997Z,0.00
2019-01-06T00:05:14.988Z,0.00
2019-01-06T00:06:14.967Z,0.00
2019-01-06T00:07:14.952Z,0.00
2019-01-06T00:08:14.937Z,0.00
2019-01-06T00:09:14.923Z,0.00
2019-01-06T00:10:14.908Z,0.00
2019-01-06T00:11:14.893Z,0.00
2019-01-06T00:12:14.886Z,0.00
2019-01-06T00:13:14.866Z,0.00
2019-01-06T00:14:14.870Z,0.00
2019-01-06T00:15:14.833Z,0.00
2019-01-06T00:16:14.817Z,0.00
2019-01-06T00:17:14.802Z,0.00
2019-01-06T00:18:14.789Z,0.00
2019-01-06T00:19:14.779Z,0.00
2019-01-06T00:20:14.784Z,0.00
2019-01-06T00:21:14.741Z,0.00
2019-01-06T00:22:14.727Z,0.00
2019-01-06T00:23:14.963Z,0.00
2019-01-06T00:24:14.697Z,0.00
2019-01-06T00:25:14.682Z,0.00
2019-01-06T00:26:14.667Z,0.00
2019-01-06T00:27:14.652Z,0.00
2019-01-06T00:28:14.637Z,0.00
2019-01-06T00:29:14.622Z,0.00
2019-01-06T00:30:14.608Z,0.00
2019-01-06T00:31:14.592Z,0.00
2019-01-06T00:32:14.576Z,0.00
2019-01-06T00:33:14.618Z,0.00
2019-01-06T00:34:14.552Z,0.00
2019-01-06T00:35:14.533Z,0.00
2019-01-06T00:36:14.518Z,0.00
2019-01-06T00:37:14.503Z,0.00
2019-01-06T00:38:14.488Z,0.00
2019-01-06T00:39:14.485Z,0.00
2019-01-06T00:40:14.460Z,0.00
2019-01-06T00:41:14.446Z,0.00
2019-01-06T00:42:14.430Z,0.00
2019-01-06T00:43:14.414Z,0.00
2019-01-06T00:44:14.399Z,0.00
2019-01-06T00:45:14.385Z,0.00
2019-01-06T00:46:14.370Z,0.00
2019-01-06T00:47:14.358Z,0.00
2019-01-06T00:48:14.340Z,0.00
2019-01-06T00:49:14.325Z,0.00
2019-01-06T00:50:14.311Z,0.00
2019-01-06T00:51:14.297Z,0.00
2019-01-06T00:52:14.280Z,0.00
2019-01-06T00:53:14.517Z,0.00
2019-01-06T00:54:14.254Z,0.00
2019-01-06T00:55:14.259Z,0.00
2019-01-06T00:56:14.221Z,0.00
2019-01-06T00:57:14.207Z,0.00
2019-01-06T00:58:14.193Z,0.00
2019-01-06T00:59:14.178Z,0.00
2019-01-06T01:00:14.165Z,0.00
2019-01-06T01:01:14.173Z,0.00
2019-01-06T01:02:14.133Z,0.00
2019-01-06T01:03:14.119Z,0.00
2019-01-06T01:04:14.103Z,0.00
2019-01-06T01:05:14.094Z,0.00
2019-01-06T01:06:14.074Z,0.00
2019-01-06T01:07:14.060Z,0.00
2019-01-06T01:08:14.050Z,0.00
2019-01-06T01:09:14.032Z,0.00
2019-01-06T01:10:14.017Z,0.00
2019-01-06T01:11:14.002Z,0.00
2019-01-06T01:12:13.986Z,0.00
2019-01-06T01:13:13.984Z,0.00
2019-01-06T01:14:14.208Z,0.00
2019-01-06T01:15:13.943Z,0.00
2019-01-06T01:16:13.927Z,0.00
2019-01-06T01:17:13.913Z,0.00
2019-01-06T01:18:13.899Z,0.00
2019-01-06T01:19:13.884Z,0.00
2019-01-06T01:20:13.875Z,0.00
2019-01-06T01:21:13.855Z,0.00
2019-01-06T01:22:13.840Z,0.00
2019-01-06T01:23:13.826Z,0.00
2019-01-06T01:24:13.816Z,0.00
2019-01-06T01:25:13.796Z,0.00
2019-01-06T01:26:13.781Z,0.00
2019-01-06T01:27:13.767Z,0.00
2019-01-06T01:28:13.751Z,0.00
2019-01-06T01:29:13.737Z,0.00
2019-01-06T01:30:13.723Z,0.00
2019-01-06T01:31:13.708Z,0.00
2019-01-06T01:32:13.693Z,0.00
2019-01-06T01:33:13.681Z,0.00
2019-01-06T01:34:13.668Z,0.00
2019-01-06T01:35:13.649Z,0.00
2019-01-06T01:36:13.647Z,0.00
2019-01-06T01:37:13.670Z,0.00
2019-01-06T01:38:13.605Z,0.00
2019-01-06T01:39:13.592Z,0.00
2019-01-06T01:40:13.581Z,0.00
2019-01-06T01:41:13.562Z,0.00
2019-01-06T01:42:13.561Z,0.00
2019-01-06T01:43:13.533Z,0.00
2019-01-06T01:44:13.518Z,0.00
2019-01-06T01:45:13.503Z,0.00
2019-01-06T01:46:13.488Z,0.00
2019-01-06T01:47:13.476Z,0.00
2019-01-06T01:48:13.459Z,0.00
2019-01-06T01:49:13.445Z,0.00
2019-01-06T01:50:13.430Z,0.00
2019-01-06T01:51:13.417Z,0.00
2019-01-06T01:52:13.400Z,0.00
2019-01-06T01:53:13.396Z,0.00
2019-01-06T01:54:13.377Z,0.00
2019-01-06T01:55:13.357Z,0.00
2019-01-06T01:56:13.342Z,0.00
2019-01-06T01:57:13.327Z,0.00
2019-01-06T01:58:13.314Z,0.00
2019-01-06T01:59:13.298Z,0.00
2019-01-06T02:00:13.291Z,0.00
2019-01-06T02:01:13.268Z,0.00
2019-01-06T02:02:13.253Z,0.00
2019-01-06T02:03:13.238Z,0.00
2019-01-06T02:04:13.223Z,0.00
2019-01-06T02:05:13.208Z,0.00
2019-01-06T02:06:13.193Z,0.00
2019-01-06T02:07:13.181Z,0.00
2019-01-06T02:08:13.163Z,0.00
2019-01-06T02:09:13.148Z,0.00
2019-01-06T02:10:13.138Z,0.00
2019-01-06T02:11:13.119Z,0.00
2019-01-06T02:12:13.103Z,0.00
2019-01-06T02:13:13.096Z,0.00
2019-01-06T02:14:13.095Z,0.00
2019-01-06T02:15:13.059Z,0.00
2019-01-06T02:16:13.048Z,0.00
2019-01-06T02:17:13.028Z,0.00
2019-01-06T02:18:13.014Z,0.00
2019-01-06T02:19:12.999Z,0.00
2019-01-06T02:20:12.983Z,0.00
2019-01-06T02:21:12.971Z,0.00
2019-01-06T02:22:12.990Z,0.00
2019-01-06T02:23:12.939Z,0.00
2019-01-06T02:24:12.926Z,0.00
2019-01-06T02:25:12.911Z,0.00
2019-01-06T02:26:12.893Z,0.00
2019-01-06T02:27:12.879Z,0.00
2019-01-06T02:28:12.863Z,0.00
2019-01-06T02:29:12.848Z,0.00
2019-01-06T02:30:13.088Z,0.00
2019-01-06T02:31:12.829Z,0.00
2019-01-06T02:32:12.805Z,0.00
2019-01-06T02:33:12.788Z,0.00
2019-01-06T02:34:12.781Z,0.00
2019-01-06T02:35:12.762Z,0.00
2019-01-06T02:36:12.743Z,0.00
2019-01-06T02:37:12.727Z,0.00
2019-01-06T02:38:12.714Z,0.00
2019-01-06T02:39:12.699Z,0.00
2019-01-06T02:40:12.682Z,0.00
2019-01-06T02:41:12.673Z,0.00
2019-01-06T02:42:12.654Z,0.00
2019-01-06T02:43:12.638Z,0.00
2019-01-06T02:44:12.621Z,0.00
2019-01-06T02:45:12.609Z,0.00
2019-01-06T02:46:12.592Z,0.00
2019-01-06T02:47:12.577Z,0.00
2019-01-06T02:48:12.563Z,0.00
2019-01-06T02:49:12.546Z,0.00
2019-01-06T02:50:12.531Z,0.00
2019-01-06T02:51:12.518Z,0.00
2019-01-06T02:52:12.501Z,0.00
2019-01-06T02:53:12.486Z,0.00
2019-01-06T02:54:12.472Z,0.00
2019-01-06T02:55:12.476Z,0.00
2019-01-06T02:56:12.441Z,0.00
2019-01-06T02:57:12.425Z,0.00
2019-01-06T02:58:12.712Z,0.00
2019-01-06T02:59:12.395Z,0.00
2019-01-06T03:00:12.381Z,0.00
2019-01-06T03:01:12.364Z,0.00
2019-01-06T03:02:12.356Z,0.00
2019-01-06T03:03:12.585Z,0.00
2019-01-06T03:04:12.326Z,0.00
2019-01-06T03:05:12.307Z,0.00
2019-01-06T03:06:12.290Z,0.00
2019-01-06T03:07:12.274Z,0.00
2019-01-06T03:08:12.301Z,0.00
2019-01-06T03:09:12.244Z,0.00
2019-01-06T03:10:12.228Z,0.00
2019-01-06T03:11:12.214Z,0.00
2019-01-06T03:12:12.209Z,0.00
2019-01-06T03:13:12.182Z,0.00
2019-01-06T03:14:12.167Z,0.00
2019-01-06T03:15:12.155Z,0.00
2019-01-06T03:16:12.140Z,0.00
2019-01-06T03:17:12.122Z,0.00
2019-01-06T03:18:12.108Z,0.00
2019-01-06T03:19:12.103Z,0.00
2019-01-06T03:20:12.079Z,0.00
2019-01-06T03:21:12.062Z,0.00
2019-01-06T03:22:12.047Z,0.00
2019-01-06T03:23:12.035Z,0.00
2019-01-06T03:24:12.019Z,0.00
2019-01-06T03:25:12.006Z,0.00
2019-01-06T03:26:11.987Z,0.00
2019-01-06T03:27:11.972Z,0.00
2019-01-06T03:28:11.957Z,0.00
2019-01-06T03:29:11.949Z,0.00
2019-01-06T03:30:11.927Z,0.00
2019-01-06T03:31:11.925Z,0.00
2019-01-06T03:32:11.896Z,0.00
2019-01-06T03:33:11.881Z,0.00
2019-01-06T03:34:12.115Z,0.00
2019-01-06T03:35:11.850Z,0.00
2019-01-06T03:36:11.834Z,0.00
2019-01-06T03:37:11.828Z,0.00
2019-01-06T03:38:11.817Z,0.00
2019-01-06T03:39:11.797Z,0.00
2019-01-06T03:40:11.774Z,0.00
2019-01-06T03:41:11.757Z,0.00
2019-01-06T03:42:11.742Z,0.00
2019-01-06T03:43:11.726Z,0.00
2019-01-06T03:44:11.714Z,0.00
2019-01-06T03:45:11.709Z,0.00
2019-01-06T03:46:11.685Z,0.00
2019-01-06T03:47:11.666Z,0.00
2019-01-06T03:48:11.648Z,0.00
2019-01-06T03:49:11.633Z,0.00
2019-01-06T03:50:11.618Z,0.00
2019-01-06T03:51:11.604Z,0.00
2019-01-06T03:52:11.587Z,0.00
2019-01-06T03:53:11.572Z,0.00
2019-01-06T03:54:11.557Z,0.00
2019-01-06T03:55:11.542Z,0.00
2019-01-06T03:56:11.527Z,0.00
2019-01-06T03:57:11.511Z,0.00
2019-01-06T03:58:11.500Z,0.00
2019-01-06T03:59:11.484Z,0.00
2019-01-06T04:00:11.466Z,0.00
2019-01-06T04:01:11.450Z,0.00
2019-01-06T04:02:11.437Z,0.00
2019-01-06T04:03:11.421Z,0.00
2019-01-06T04:04:11.406Z,0.00
2019-01-06T04:05:11.647Z,0.00
2019-01-06T04:06:11.374Z,0.00
2019-01-06T04:07:11.360Z,0.00
2019-01-06T04:08:11.344Z,0.00
2019-01-06T04:09:11.331Z,0.00
2019-01-06T04:10:12.821Z,0.00
2019-01-06T04:11:15.361Z,0.00
2019-01-06T04:12:11.286Z,0.00
2019-01-06T04:13:11.274Z,0.00
2019-01-06T04:14:11.257Z,0.00
2019-01-06T04:15:11.244Z,0.00
2019-01-06T04:16:11.224Z,0.00
2019-01-06T04:17:11.210Z,0.00
2019-01-06T04:18:11.197Z,0.00
2019-01-06T04:19:11.185Z,0.00
2019-01-06T04:20:11.188Z,0.00
2019-01-06T04:21:11.148Z,0.00
2019-01-06T04:22:11.133Z,0.00
2019-01-06T04:23:11.122Z,0.00
2019-01-06T04:24:11.103Z,0.00
2019-01-06T04:25:11.089Z,0.00
2019-01-06T04:26:11.073Z,0.00
2019-01-06T04:27:11.062Z,0.00
2019-01-06T04:28:11.054Z,0.00
2019-01-06T04:29:11.041Z,0.00
2019-01-06T04:30:11.015Z,0.00
2019-01-06T04:31:10.999Z,0.00
2019-01-06T04:32:10.984Z,0.00
2019-01-06T04:33:10.968Z,0.00
2019-01-06T04:34:10.954Z,0.00
2019-01-06T04:35:10.939Z,0.00
2019-01-06T04:36:11.175Z,0.00
2019-01-06T04:37:10.910Z,0.00
2019-01-06T04:38:10.895Z,0.00
2019-01-06T04:39:10.880Z,0.00
2019-01-06T04:40:10.875Z,0.00
2019-01-06T04:41:10.856Z,0.00
2019-01-06T04:42:10.836Z,0.00
2019-01-06T04:43:10.821Z,0.00
2019-01-06T04:44:10.805Z,0.00
2019-01-06T04:45:10.789Z,0.00
2019-01-06T04:46:10.776Z,0.00
2019-01-06T04:47:10.772Z,0.00
2019-01-06T04:48:10.745Z,0.00
2019-01-06T04:49:10.730Z,0.00
2019-01-06T04:50:10.716Z,0.00
2019-01-06T04:51:10.701Z,0.00
2019-01-06T04:52:10.685Z,0.00
2019-01-06T04:53:10.671Z,0.00
2019-01-06T04:54:10.655Z,0.00
2019-01-06T04:55:10.641Z,0.00
2019-01-06T04:56:10.626Z,0.00
2019-01-06T04:57:10.611Z,0.00
2019-01-06T04:58:10.603Z,0.00
2019-01-06T04:59:10.582Z,0.00
2019-01-06T05:00:10.577Z,0.00
2019-01-06T05:01:10.580Z,0.00
2019-01-06T05:02:10.557Z,0.00
2019-01-06T05:03:10.521Z,0.00
2019-01-06T05:04:10.512Z,0.00
2019-01-06T05:05:10.490Z,0.00
2019-01-06T05:06:10.476Z,0.00
2019-01-06T05:07:10.461Z,0.00
2019-01-06T05:08:10.447Z,0.00
2019-01-06T05:09:10.436Z,0.00
2019-01-06T05:10:10.426Z,0.00
2019-01-06T05:11:10.402Z,0.00
2019-01-06T05:12:10.385Z,0.00
2019-01-06T05:13:10.370Z,0.00
2019-01-06T05:14:10.355Z,0.00
2019-01-06T05:15:10.342Z,0.00
2019-01-06T05:16:10.325Z,0.00
2019-01-06T05:17:10.310Z,0.00
2019-01-06T05:18:10.296Z,0.00
2019-01-06T05:19:10.280Z,0.00
2019-01-06T05:20:10.264Z,0.00
2019-01-06T05:21:10.263Z,0.00
2019-01-06T05:22:10.245Z,0.00
2019-01-06T05:23:10.221Z,0.00
2019-01-06T05:24:10.204Z,0.00
2019-01-06T05:25:10.190Z,0.00
2019-01-06T05:26:10.176Z,0.00
2019-01-06T05:27:10.161Z,0.00
2019-01-06T05:28:10.156Z,0.00
2019-01-06T05:29:10.135Z,0.00
2019-01-06T05:30:10.135Z,0.00
2019-01-06T05:31:10.099Z,0.00
2019-01-06T05:32:10.083Z,0.00
2019-01-06T05:33:10.070Z,0.00
2019-01-06T05:34:10.054Z,0.00
2019-01-06T05:35:10.039Z,0.00
2019-01-06T05:36:10.023Z,0.00
2019-01-06T05:37:10.008Z,0.00
2019-01-06T05:38:09.993Z,0.00
2019-01-06T05:39:09.979Z,0.00
2019-01-06T05:40:09.963Z,0.00
2019-01-06T05:41:09.948Z,0.00
2019-01-06T05:42:09.935Z,0.00
2019-01-06T05:43:09.930Z,0.00
2019-01-06T05:44:09.909Z,0.00
2019-01-06T05:45:09.903Z,0.00
2019-01-06T05:46:09.875Z,0.00
2019-01-06T05:47:09.860Z,0.00
2019-01-06T05:48:09.844Z,0.00
2019-01-06T05:49:09.839Z,0.00
2019-01-06T05:50:09.816Z,0.00
2019-01-06T05:51:09.815Z,0.00
2019-01-06T05:52:09.784Z,0.00
2019-01-06T05:53:09.770Z,0.00
2019-01-06T05:54:09.755Z,0.00
2019-01-06T05:55:09.740Z,0.00
2019-01-06T05:56:09.725Z,0.00
2019-01-06T05:57:09.710Z,0.00
2019-01-06T05:58:09.695Z,0.00
2019-01-06T05:59:09.682Z,0.00
2019-01-06T06:00:09.669Z,0.00
2019-01-06T06:01:09.652Z,0.00
2019-01-06T06:02:09.645Z,0.00
2019-01-06T06:03:09.633Z,0.00
2019-01-06T06:04:09.606Z,0.00
2019-01-06T06:05:09.591Z,0.00
2019-01-06T06:06:09.577Z,0.00
2019-01-06T06:07:11.465Z,0.00
2019-01-06T06:08:09.546Z,0.00
2019-01-06T06:09:09.533Z,0.00
2019-01-06T06:10:09.518Z,0.00
2019-01-06T06:11:09.502Z,0.00
2019-01-06T06:12:09.486Z,0.00
2019-01-06T06:13:09.471Z,0.00
2019-01-06T06:14:09.457Z,0.00
2019-01-06T06:15:09.443Z,0.00
2019-01-06T06:16:09.427Z,0.00
2019-01-06T06:17:09.413Z,0.00
2019-01-06T06:18:09.397Z,0.00
2019-01-06T06:19:09.383Z,0.00
2019-01-06T06:20:09.367Z,0.00
2019-01-06T06:21:09.352Z,0.00
2019-01-06T06:22:09.337Z,0.00
2019-01-06T06:23:09.339Z,0.00
2019-01-06T06:24:09.311Z,0.00
2019-01-06T06:25:09.298Z,0.00
2019-01-06T06:26:09.290Z,0.00
2019-01-06T06:27:09.262Z,0.00
2019-01-06T06:28:09.247Z,0.00
2019-01-06T06:29:09.232Z,0.00
2019-01-06T06:30:09.225Z,0.00
2019-01-06T06:31:09.202Z,0.00
2019-01-06T06:32:09.204Z,0.00
2019-01-06T06:33:09.173Z,0.00
2019-01-06T06:34:09.158Z,0.00
2019-01-06T06:35:09.143Z,0.00
2019-01-06T06:36:09.127Z,0.00
2019-01-06T06:37:09.363Z,0.00
2019-01-06T06:38:09.097Z,0.00
2019-01-06T06:39:09.083Z,0.00
2019-01-06T06:40:09.067Z,0.00
2019-01-06T06:41:09.053Z,0.00
2019-01-06T06:42:09.038Z,0.00
2019-01-06T06:43:09.033Z,0.00
2019-01-06T06:44:09.020Z,0.00
2019-01-06T06:45:08.993Z,0.00
2019-01-06T06:46:08.979Z,0.00
2019-01-06T06:47:08.966Z,0.00
2019-01-06T06:48:08.951Z,0.00
2019-01-06T06:49:08.934Z,0.00
2019-01-06T06:50:08.933Z,0.00
2019-01-06T06:51:08.907Z,0.00
2019-01-06T06:52:08.889Z,0.00
2019-01-06T06:53:08.882Z,0.00
2019-01-06T06:54:08.860Z,0.00
2019-01-06T06:55:08.845Z,0.00
2019-01-06T06:56:08.832Z,0.00
2019-01-06T06:57:08.815Z,0.00
2019-01-06T06:58:08.806Z,0.00
2019-01-06T06:59:08.788Z,0.00
2019-01-06T07:00:08.771Z,0.00
2019-01-06T07:01:08.757Z,0.00
2019-01-06T07:02:08.742Z,4.00
2019-01-06T07:03:08.727Z,4.00
2019-01-06T07:04:08.714Z,4.00
2019-01-06T07:05:08.714Z,0.00
2019-01-06T07:06:08.710Z,0.00
2019-01-06T07:07:08.712Z,4.00
2019-01-06T07:08:08.663Z,4.00
2019-01-06T07:09:08.637Z,4.00
2019-01-06T07:10:08.639Z,4.00
2019-01-06T07:11:08.641Z,4.00
2019-01-06T07:12:08.644Z,8.00
2019-01-06T07:13:08.620Z,8.00
2019-01-06T07:14:08.578Z,8.00
2019-01-06T07:15:08.573Z,8.00
2019-01-06T07:16:08.570Z,12.00
2019-01-06T07:17:08.518Z,8.00
2019-01-06T07:18:08.509Z,12.00
2019-01-06T07:19:08.502Z,12.00
2019-01-06T07:20:08.474Z,16.00
2019-01-06T07:21:08.458Z,16.00
2019-01-06T07:22:08.460Z,20.00
2019-01-06T07:23:08.433Z,24.00
2019-01-06T07:24:08.414Z,28.00
2019-01-06T07:25:08.443Z,36.00
2019-01-06T07:26:08.432Z,40.00
2019-01-06T07:27:08.402Z,40.00
2019-01-06T07:28:08.383Z,44.00
2019-01-06T07:29:08.350Z,48.00
2019-01-06T07:30:08.326Z,48.00
2019-01-06T07:31:08.318Z,56.00
2019-01-06T07:32:08.331Z,60.00
2019-01-06T07:33:08.298Z,68.00
2019-01-06T07:34:08.282Z,72.00
2019-01-06T07:35:08.333Z,80.00
2019-01-06T07:36:08.239Z,88.00
2019-01-06T07:37:08.281Z,88.00
2019-01-06T07:38:08.229Z,104.00
2019-01-06T07:39:08.252Z,120.00
2019-01-06T07:40:08.222Z,120.00
2019-01-06T07:41:08.260Z,140.00
2019-01-06T07:42:08.148Z,156.00
2019-01-06T07:43:08.156Z,180.00
2019-01-06T07:44:08.137Z,180.00
2019-01-06T07:45:08.105Z,184.00
2019-01-06T07:46:08.089Z,192.00
2019-01-06T07:47:08.097Z,212.00
2019-01-06T07:48:08.087Z,248.00
2019-01-06T07:49:08.065Z,248.00
2019-01-06T07:50:08.050Z,260.00
2019-01-06T07:51:08.041Z,284.00
2019-01-06T07:52:08.050Z,280.00
2019-01-06T07:53:08.092Z,300.00
2019-01-06T07:54:08.004Z,308.00
2019-01-06T07:55:07.990Z,308.00
2019-01-06T07:56:07.971Z,352.00
2019-01-06T07:57:07.942Z,380.00
2019-01-06T07:58:07.973Z,384.00
2019-01-06T07:59:07.940Z,508.00
2019-01-06T08:00:15.003Z,532.00
2019-01-06T08:01:07.902Z,508.00
2019-01-06T08:02:07.888Z,468.00
2019-01-06T08:03:07.885Z,504.00
2019-01-06T08:04:07.863Z,564.00
2019-01-06T08:05:07.879Z,560.00
2019-01-06T08:06:07.821Z,616.00
2019-01-06T08:07:07.803Z,656.00
2019-01-06T08:08:07.782Z,728.00
2019-01-06T08:09:07.811Z,736.00
2019-01-06T08:10:07.793Z,756.00
2019-01-06T08:11:07.868Z,736.00
2019-01-06T08:12:07.805Z,712.00
2019-01-06T08:13:07.704Z,752.00
2019-01-06T08:14:07.763Z,644.00
2019-01-06T08:15:07.752Z,620.00
2019-01-06T08:16:07.745Z,732.00
2019-01-06T08:17:07.707Z,804.00
2019-01-06T08:18:07.692Z,896.00
2019-01-06T08:19:07.656Z,952.00
2019-01-06T08:20:07.654Z,968.00
2019-01-06T08:21:07.614Z,1072.00
2019-01-06T08:22:07.587Z,872.00
2019-01-06T08:23:07.554Z,880.00
2019-01-06T08:24:07.594Z,932.00
2019-01-06T08:25:07.528Z,800.00
2019-01-06T08:26:07.584Z,832.00
2019-01-06T08:27:07.597Z,800.00
2019-01-06T08:28:07.487Z,940.00
2019-01-06T08:29:07.485Z,1064.00
2019-01-06T08:30:07.465Z,940.00
2019-01-06T08:31:07.479Z,1196.00
2019-01-06T08:32:07.479Z,1240.00
2019-01-06T08:33:07.486Z,1164.00
2019-01-06T08:34:07.434Z,1244.00
2019-01-06T08:35:07.444Z,1420.00
2019-01-06T08:36:07.462Z,1288.00
2019-01-06T08:37:07.400Z,1260.00
2019-01-06T08:38:07.391Z,1196.00
2019-01-06T08:39:07.319Z,1144.00
2019-01-06T08:40:07.376Z,1168.00
2019-01-06T08:41:07.350Z,1328.00
2019-01-06T08:42:07.318Z,1336.00
2019-01-06T08:43:07.287Z,1360.00
2019-01-06T08:44:07.262Z,1356.00
2019-01-06T08:45:07.253Z,1424.00
2019-01-06T08:46:07.237Z,1516.00
2019-01-06T08:47:07.216Z,1336.00
2019-01-06T08:48:07.187Z,1340.00
2019-01-06T08:49:07.187Z,1228.00
2019-01-06T08:50:07.149Z,1228.00
2019-01-06T08:51:07.141Z,1380.00
2019-01-06T08:52:07.129Z,1308.00
2019-01-06T08:53:07.150Z,1272.00
2019-01-06T08:54:07.116Z,1232.00
2019-01-06T08:55:07.093Z,1196.00
2019-01-06T08:56:07.077Z,1196.00
2019-01-06T08:57:07.086Z,1344.00
2019-01-06T08:58:07.043Z,1288.00
2019-01-06T08:59:07.074Z,1152.00
2019-01-06T09:00:07.088Z,992.00
2019-01-06T09:01:07.007Z,960.00
2019-01-06T09:02:07.000Z,1120.00
2019-01-06T09:03:07.008Z,1276.00
2019-01-06T09:04:06.964Z,1360.00
2019-01-06T09:05:06.955Z,1368.00
2019-01-06T09:06:06.938Z,1608.00
2019-01-06T09:07:07.011Z,1684.00
2019-01-06T09:08:06.930Z,1512.00
2019-01-06T09:09:06.933Z,1732.00
2019-01-06T09:10:06.953Z,1856.00
2019-01-06T09:11:06.955Z,1752.00
2019-01-06T09:12:06.842Z,1952.00
2019-01-06T09:13:06.892Z,1940.00
2019-01-06T09:14:06.815Z,1944.00
2019-01-06T09:15:06.861Z,1968.00
2019-01-06T09:16:06.846Z,2084.00
2019-01-06T09:17:06.815Z,2160.00
2019-01-06T09:18:06.764Z,2480.00
2019-01-06T09:19:06.794Z,2620.00
2019-01-06T09:20:06.752Z,2648.00
2019-01-06T09:21:06.826Z,2516.00
2019-01-06T09:22:06.787Z,2588.00
2019-01-06T09:23:06.710Z,2784.00
2019-01-06T09:24:06.711Z,2516.00
2019-01-06T09:25:06.678Z,2192.00
2019-01-06T09:26:06.673Z,2696.00
2019-01-06T09:27:06.848Z,3012.00
2019-01-06T09:28:06.651Z,2772.00
2019-01-06T09:29:06.632Z,2396.00
2019-01-06T09:30:06.593Z,2368.00
2019-01-06T09:31:06.597Z,2164.00
2019-01-06T09:32:06.625Z,1820.00
2019-01-06T09:33:06.556Z,1948.00
2019-01-06T09:34:06.636Z,2260.00
2019-01-06T09:35:06.519Z,2488.00
2019-01-06T09:36:06.573Z,1896.00
2019-01-06T09:37:06.477Z,2008.00
2019-01-06T09:38:06.556Z,2288.00
2019-01-06T09:39:06.472Z,2012.00
2019-01-06T09:40:06.957Z,2152.00
2019-01-06T09:41:06.459Z,2156.00
2019-01-06T09:42:06.457Z,2076.00
2019-01-06T09:43:06.428Z,1980.00
2019-01-06T09:44:06.398Z,2256.00
2019-01-06T09:45:06.387Z,2356.00
2019-01-06T09:46:06.375Z,2060.00
2019-01-06T09:47:06.373Z,1876.00
2019-01-06T09:48:06.355Z,1852.00
2019-01-06T09:49:06.317Z,1984.00
2019-01-06T09:50:06.295Z,2072.00
2019-01-06T09:51:06.340Z,2244.00
2019-01-06T09:52:06.306Z,2356.00
2019-01-06T09:53:06.300Z,3188.00
2019-01-06T09:54:06.274Z,3256.00
2019-01-06T09:55:06.220Z,2872.00
2019-01-06T09:56:06.208Z,3048.00
2019-01-06T09:57:06.398Z,2644.00
2019-01-06T09:58:06.174Z,2488.00
2019-01-06T09:59:06.168Z,2736.00
2019-01-06T10:00:06.151Z,3100.00
2019-01-06T10:01:06.128Z,2872.00
2019-01-06T10:02:06.166Z,3268.00
2019-01-06T10:03:06.103Z,3120.00
2019-01-06T10:04:06.108Z,3212.00
2019-01-06T10:05:06.090Z,3344.00
2019-01-06T10:06:06.064Z,4172.00
2019-01-06T10:07:06.054Z,4536.00
2019-01-06T10:08:07.084Z,3740.00
2019-01-06T10:09:06.034Z,3460.00
2019-01-06T10:10:06.019Z,3620.00
2019-01-06T10:11:06.053Z,3816.00
2019-01-06T10:12:06.049Z,4208.00
2019-01-06T10:13:05.986Z,4620.00
2019-01-06T10:14:05.980Z,4620.00
2019-01-06T10:15:05.965Z,4264.00
2019-01-06T10:16:05.968Z,4616.00
2019-01-06T10:17:05.981Z,4276.00
2019-01-06T10:18:05.956Z,4228.00
2019-01-06T10:19:05.919Z,4056.00
2019-01-06T10:20:05.905Z,3856.00
2019-01-06T10:21:05.848Z,3736.00
2019-01-06T10:22:05.889Z,3464.00
2019-01-06T10:23:05.862Z,3124.00
2019-01-06T10:24:05.868Z,3116.00
2019-01-06T10:25:07.201Z,3004.00
2019-01-06T10:26:05.798Z,3760.00
2019-01-06T10:27:05.814Z,3680.00
2019-01-06T10:28:05.772Z,4256.00
2019-01-06T10:29:05.764Z,4164.00
2019-01-06T10:30:05.779Z,3896.00
2019-01-06T10:31:05.745Z,3444.00
2019-01-06T10:32:05.734Z,3208.00
2019-01-06T10:33:05.725Z,2612.00
2019-01-06T10:34:05.810Z,2368.00
2019-01-06T10:35:05.737Z,2552.00
2019-01-06T10:36:05.738Z,2680.00
2019-01-06T10:37:05.628Z,2484.00
2019-01-06T10:38:05.688Z,2540.00
2019-01-06T10:39:05.600Z,3008.00
2019-01-06T10:40:05.597Z,3116.00
2019-01-06T10:41:05.585Z,2980.00
2019-01-06T10:42:05.558Z,3032.00
2019-01-06T10:43:05.555Z,3156.00
2019-01-06T10:44:05.552Z,3288.00
2019-01-06T10:45:05.523Z,3312.00
2019-01-06T10:46:05.512Z,3180.00
2019-01-06T10:47:05.519Z,3272.00
2019-01-06T10:48:05.499Z,3296.00
2019-01-06T10:49:05.488Z,3204.00
2019-01-06T10:50:05.479Z,3000.00
2019-01-06T10:51:05.438Z,2868.00
2019-01-06T10:52:05.476Z,3012.00
2019-01-06T10:53:05.435Z,2836.00
2019-01-06T10:54:05.416Z,2660.00
2019-01-06T10:55:05.420Z,2812.00
2019-01-06T10:56:05.409Z,2612.00
2019-01-06T10:57:05.367Z,2612.00
2019-01-06T10:58:05.361Z,2572.00
2019-01-06T10:59:05.340Z,2292.00
2019-01-06T11:00:05.339Z,2616.00
2019-01-06T11:01:05.313Z,2608.00
2019-01-06T11:02:05.342Z,2636.00
2019-01-06T11:03:05.515Z,2644.00
2019-01-06T11:04:05.377Z,2848.00
2019-01-06T11:05:05.279Z,2920.00
2019-01-06T11:06:05.259Z,3124.00
2019-01-06T11:07:05.215Z,3304.00
2019-01-06T11:08:05.227Z,3368.00
2019-01-06T11:09:05.197Z,3616.00
2019-01-06T11:10:05.171Z,3428.00
2019-01-06T11:11:05.199Z,3360.00
2019-01-06T11:12:05.200Z,3088.00
2019-01-06T11:13:05.130Z,2632.00
2019-01-06T11:14:05.117Z,2388.00
2019-01-06T11:15:05.102Z,2504.00
2019-01-06T11:16:05.103Z,2456.00
2019-01-06T11:17:05.090Z,2668.00
2019-01-06T11:18:05.072Z,2864.00
2019-01-06T11:19:05.059Z,2596.00
2019-01-06T11:20:05.052Z,2348.00
2019-01-06T11:21:05.030Z,2496.00
2019-01-06T11:22:05.037Z,2640.00
2019-01-06T11:23:05.038Z,3040.00
2019-01-06T11:24:04.995Z,2896.00
2019-01-06T11:25:04.970Z,2676.00
2019-01-06T11:26:04.961Z,2400.00
2019-01-06T11:27:04.945Z,2160.00
2019-01-06T11:28:04.943Z,2576.00
2019-01-06T11:29:04.917Z,2664.00
2019-01-06T11:30:04.917Z,2372.00
2019-01-06T11:31:04.896Z,2104.00
2019-01-06T11:32:04.899Z,2236.00
2019-01-06T11:33:04.880Z,2044.00
2019-01-06T11:34:04.879Z,2444.00
2019-01-06T11:35:04.834Z,2424.00
2019-01-06T11:36:04.833Z,3012.00
2019-01-06T11:37:04.839Z,3240.00
2019-01-06T11:38:04.830Z,3224.00
2019-01-06T11:39:04.787Z,3216.00
2019-01-06T11:40:04.808Z,2744.00
2019-01-06T11:41:08.028Z,2332.00
2019-01-06T11:42:04.835Z,1860.00
2019-01-06T11:43:04.714Z,1628.00
2019-01-06T11:44:04.728Z,1816.00
2019-01-06T11:45:04.704Z,1896.00
2019-01-06T11:46:04.696Z,1764.00
2019-01-06T11:47:04.655Z,2068.00
2019-01-06T11:48:04.650Z,2344.00
2019-01-06T11:49:04.637Z,2188.00
2019-01-06T11:50:04.625Z,1900.00
2019-01-06T11:51:04.650Z,1800.00
2019-01-06T11:52:04.585Z,1744.00
2019-01-06T11:53:04.577Z,1708.00
2019-01-06T11:54:04.559Z,1344.00
2019-01-06T11:55:04.592Z,1288.00
2019-01-06T11:56:04.570Z,1460.00
2019-01-06T11:57:04.513Z,1636.00
2019-01-06T11:58:04.505Z,2096.00
2019-01-06T11:59:04.502Z,1980.00
2019-01-06T12:00:04.493Z,1932.00
2019-01-06T12:01:04.464Z,2156.00
2019-01-06T12:02:04.449Z,2168.00
2019-01-06T12:03:04.425Z,2328.00
2019-01-06T12:04:04.422Z,1908.00
2019-01-06T12:05:04.406Z,2148.00
2019-01-06T12:06:04.390Z,3224.00
2019-01-06T12:07:04.374Z,3084.00
2019-01-06T12:08:05.783Z,3368.00
2019-01-06T12:09:04.339Z,3148.00
2019-01-06T12:10:04.332Z,2952.00
2019-01-06T12:11:04.310Z,2952.00
2019-01-06T12:12:04.300Z,2656.00
2019-01-06T12:13:04.307Z,2212.00
2019-01-06T12:14:04.273Z,2016.00
2019-01-06T12:15:04.259Z,1968.00
2019-01-06T12:16:04.240Z,1664.00
2019-01-06T12:17:04.224Z,2044.00
2019-01-06T12:18:04.210Z,2176.00
2019-01-06T12:19:04.273Z,2060.00
2019-01-06T12:20:04.182Z,2148.00
2019-01-06T12:21:04.178Z,2148.00
2019-01-06T12:22:04.170Z,1896.00
2019-01-06T12:23:04.139Z,2068.00
2019-01-06T12:24:04.123Z,2688.00
2019-01-06T12:25:04.116Z,2316.00
2019-01-06T12:26:04.103Z,2096.00
2019-01-06T12:27:04.116Z,2704.00
2019-01-06T12:28:04.069Z,2892.00
2019-01-06T12:29:04.106Z,3104.00
2019-01-06T12:30:04.046Z,2968.00
2019-01-06T12:31:04.029Z,2376.00
2019-01-06T12:32:04.029Z,2608.00
2019-01-06T12:33:04.000Z,2644.00
2019-01-06T12:34:03.995Z,2596.00
2019-01-06T12:35:03.985Z,2632.00
2019-01-06T12:36:04.041Z,3204.00
2019-01-06T12:37:04.025Z,2360.00
2019-01-06T12:38:04.002Z,2004.00
2019-01-06T12:39:03.935Z,1688.00
2019-01-06T12:40:03.920Z,2024.00
2019-01-06T12:41:03.972Z,2560.00
2019-01-06T12:42:03.989Z,2236.00
2019-01-06T12:43:03.900Z,1840.00
2019-01-06T12:44:03.893Z,1728.00
2019-01-06T12:45:03.890Z,1736.00
2019-01-06T12:46:03.861Z,1592.00
2019-01-06T12:47:03.872Z,1884.00
2019-01-06T12:48:03.842Z,1900.00